Eikyumaru No.8 — JL6210 — position and weather

sailwx.info

Track history (hours):
 
Tides and Currents Weather Stations Pressure Air Temp Water Temp Dewpoint Dewpoint Depression Visibility Wind Speed Wind Dir Waves Ship Positions

Eikyumaru No.8

Last reported at 2018-Jun-22 02:26 UTC. Time now 2018-Jun-25 00:19 UTC.
Position N 34°38' E 134°57'.

Length 54 m.

Type: Cargo ship. MMSI: 431500105.

Date/timePositionNaut miles runAvg speedWind from/ knotsBaromVisibWave heightAir tempDewpointWater temp
2018-Jun-22 02:26N 34°38' E 134°57'5 8.8
2018-Jun-22 01:50N 34°36' E 135°03'310.3
2018-Jun-22 01:30N 34°36' E 135°07'611.5
2018-Jun-22 01:00N 34°38' E 135°14'3 5.3
2018-Jun-22 00:27N 34°39' E 135°17'0 0.0
2018-Jun-21 23:57N 34°39' E 135°17'0 0.0
2018-Jun-21 23:27N 34°39' E 135°17'0 0.4
2018-Jun-21 22:55N 34°39' E 135°17'0 0.0
2018-Jun-21 21:43N 34°39' E 135°17'0 0.1
2018-Jun-21 21:19N 34°39' E 135°17'0 0.0
2018-Jun-21 20:55N 34°39' E 135°17'0 0.0
2018-Jun-21 20:19N 34°39' E 135°17'0 0.0
2018-Jun-21 19:55N 34°39' E 135°17'0 0.0
2018-Jun-21 19:25N 34°39' E 135°17'0 0.0
2018-Jun-21 18:55N 34°39' E 135°17'0 0.0
2018-Jun-21 18:25N 34°39' E 135°17'0 0.0
2018-Jun-21 17:55N 34°39' E 135°17'0 0.0
2018-Jun-21 17:25N 34°39' E 135°17'0 0.0
2018-Jun-21 16:55N 34°39' E 135°17'0 0.0
2018-Jun-21 16:25N 34°39' E 135°17'0 0.0
2018-Jun-21 15:49N 34°39' E 135°17'0 0.0
2018-Jun-21 15:25N 34°39' E 135°17'0 0.0
2018-Jun-21 14:55N 34°39' E 135°17'0 0.0
2018-Jun-21 14:25N 34°39' E 135°17'0 0.0
2018-Jun-21 13:49N 34°39' E 135°17'0 0.0
2018-Jun-21 13:25N 34°39' E 135°17'0 0.0
2018-Jun-21 12:55N 34°39' E 135°17'0 0.0
2018-Jun-21 12:25N 34°39' E 135°17'0 0.0
2018-Jun-21 11:55N 34°39' E 135°17'0 0.0
2018-Jun-21 11:25N 34°39' E 135°17'0 0.0
2018-Jun-21 10:55N 34°39' E 135°17'0 0.0
2018-Jun-21 10:25N 34°39' E 135°17'0 0.0
2018-Jun-21 09:55N 34°39' E 135°17'0 0.0
2018-Jun-21 09:30N 34°39' E 135°17'5 8.6
2018-Jun-21 08:57N 34°37' E 135°12'510.6
2018-Jun-21 08:30N 34°35' E 135°07'3 0.4
2018-Jun-21 01:36N 34°36' E 135°04'1 9.3
2018-Jun-21 01:29N 34°36' E 135°05'611.0
2018-Jun-21 00:57N 34°37' E 135°12'5 8.8
2018-Jun-21 00:25N 34°39' E 135°17'0 0.0
2018-Jun-20 23:43N 34°39' E 135°17'0 0.0
2018-Jun-20 23:22N 34°39' E 135°17'0 0.5
2018-Jun-20 22:58N 34°40' E 135°17'0 0.0
2018-Jun-20 22:28N 34°40' E 135°17'0 0.0
2018-Jun-20 21:58N 34°40' E 135°17'0 0.0
2018-Jun-20 21:28N 34°40' E 135°17'0 0.0
2018-Jun-20 20:46N 34°40' E 135°17'0 0.0
2018-Jun-20 20:28N 34°40' E 135°17'0 0.0
2018-Jun-20 19:52N 34°39' E 135°17'0 0.0
2018-Jun-20 19:28N 34°40' E 135°17'0 0.0
2018-Jun-20 18:46N 34°40' E 135°17'0 0.0
2018-Jun-20 18:28N 34°40' E 135°17'0 0.0
2018-Jun-20 17:58N 34°40' E 135°17'0 0.0
2018-Jun-20 17:28N 34°40' E 135°17'0 0.0
2018-Jun-20 16:58N 34°40' E 135°17'0 0.0
2018-Jun-20 16:28N 34°40' E 135°17'0 0.0
2018-Jun-20 15:58N 34°40' E 135°17'0 0.0
2018-Jun-20 15:28N 34°40' E 135°17'0 0.0
2018-Jun-20 14:58N 34°40' E 135°17'0 0.1
2018-Jun-20 14:28N 34°40' E 135°17'0 0.0
2018-Jun-20 13:58N 34°40' E 135°17'0 0.1
2018-Jun-20 13:28N 34°40' E 135°17'0 0.0
2018-Jun-20 12:58N 34°40' E 135°17'0 0.0
2018-Jun-20 12:28N 34°40' E 135°17'0 0.0
2018-Jun-20 11:52N 34°40' E 135°17'0 0.0
2018-Jun-20 11:22N 34°40' E 135°17'0 0.0
2018-Jun-20 10:40N 34°40' E 135°17'0 0.0
2018-Jun-20 10:28N 34°40' E 135°17'0 0.0
2018-Jun-20 09:58N 34°40' E 135°17'0 0.0
2018-Jun-20 09:28N 34°40' E 135°17'2 5.2
2018-Jun-20 09:00N 34°37' E 135°16'510.6
2018-Jun-20 08:29N 34°36' E 135°09'10 1.7
2018-Jun-20 02:17N 34°38' E 134°57'411.1
2018-Jun-20 01:58N 34°37' E 135°01'510.0
2018-Jun-20 01:30N 34°36' E 135°07'611.2
2018-Jun-20 01:00N 34°37' E 135°13'3 6.7
2018-Jun-20 00:30N 34°39' E 135°17'0 0.0
2018-Jun-20 00:00N 34°39' E 135°17'0 0.0
2018-Jun-19 23:30N 34°39' E 135°17'0 0.3
2018-Jun-19 22:58N 34°39' E 135°17'0 0.0
2018-Jun-19 22:28N 34°39' E 135°17'0 0.0
2018-Jun-19 21:40N 34°39' E 135°17'0 0.0
2018-Jun-19 21:16N 34°39' E 135°17'0 0.0
2018-Jun-19 20:58N 34°39' E 135°17'0 0.0
2018-Jun-19 20:28N 34°39' E 135°17'0 0.0
2018-Jun-19 19:58N 34°39' E 135°17'0 0.0
2018-Jun-19 19:16N 34°39' E 135°17'0 0.0
2018-Jun-19 18:58N 34°39' E 135°17'0 0.0
2018-Jun-19 18:16N 34°39' E 135°17'0 0.0
2018-Jun-19 17:46N 34°39' E 135°17'0 0.0
2018-Jun-19 17:28N 34°39' E 135°17'0 0.0
2018-Jun-19 16:58N 34°39' E 135°17'0 0.0
2018-Jun-19 16:28N 34°39' E 135°17'0 0.0
2018-Jun-19 15:58N 34°39' E 135°17'0 0.0
2018-Jun-19 15:22N 34°39' E 135°17'0 0.0
2018-Jun-19 14:58N 34°39' E 135°17'0 0.0
2018-Jun-19 14:28N 34°39' E 135°17'0 0.0
2018-Jun-19 13:58N 34°40' E 135°17'0 0.1
2018-Jun-19 13:28N 34°40' E 135°17'0 0.0
2018-Jun-19 12:58N 34°40' E 135°17'0 0.1
2018-Jun-19 12:28N 34°40' E 135°17'0 0.1
2018-Jun-19 11:58N 34°40' E 135°17'0 0.0
2018-Jun-19 11:28N 34°40' E 135°17'0 0.0
2018-Jun-19 10:46N 34°40' E 135°17'0 0.0
2018-Jun-19 10:28N 34°40' E 135°17'0 0.0
2018-Jun-19 09:58N 34°40' E 135°17'1 2.0
2018-Jun-19 09:30N 34°39' E 135°17'510.6
2018-Jun-19 09:00N 34°36' E 135°11'611.3
2018-Jun-19 08:30N 34°35' E 135°05'3 0.5
2018-Jun-19 02:03N 34°37' E 135°02'311.7
2018-Jun-19 01:50N 34°36' E 135°04'411.9
2018-Jun-19 01:30N 34°37' E 135°09'611.5
2018-Jun-19 00:59N 34°38' E 135°16'2 1.0
2018-Jun-18 23:25N 34°39' E 135°17'0 0.5
2018-Jun-18 22:57N 34°40' E 135°17'0 0.0
2018-Jun-18 22:27N 34°40' E 135°17'0 0.0
2018-Jun-18 21:52N 34°40' E 135°17'0 0.0
2018-Jun-18 21:27N 34°40' E 135°17'0 0.0
2018-Jun-18 20:58N 34°40' E 135°17'0 0.0
2018-Jun-18 20:21N 34°40' E 135°17'0 0.0
2018-Jun-18 19:57N 34°40' E 135°17'0 0.0
2018-Jun-18 19:27N 34°40' E 135°17'0 0.1
2018-Jun-18 18:58N 34°40' E 135°17'0 0.1
2018-Jun-18 18:27N 34°40' E 135°17'0 0.1
2018-Jun-18 17:58N 34°40' E 135°17'0 0.0
2018-Jun-18 17:28N 34°40' E 135°17'0 0.0
2018-Jun-18 16:57N 34°40' E 135°17'0 0.0
2018-Jun-18 16:22N 34°40' E 135°17'0 0.0
2018-Jun-18 15:57N 34°40' E 135°17'0 0.1
2018-Jun-18 15:15N 34°39' E 135°17'0 0.0
2018-Jun-18 14:51N 34°40' E 135°17'0 0.0
2018-Jun-18 14:27N 34°39' E 135°17'0 0.0
2018-Jun-18 13:58N 34°39' E 135°17'0 0.0
2018-Jun-18 13:27N 34°39' E 135°17'0 0.0
2018-Jun-18 12:57N 34°39' E 135°17'0 0.0
2018-Jun-18 12:27N 34°39' E 135°17'0 0.0
2018-Jun-18 11:09N 34°39' E 135°17'0 0.0
2018-Jun-18 10:58N 34°39' E 135°17'0 0.0
2018-Jun-18 10:27N 34°39' E 135°17'0 0.0
2018-Jun-18 09:58N 34°39' E 135°17'0 0.0
2018-Jun-18 09:21N 34°39' E 135°17'0 0.0
2018-Jun-18 08:57N 34°39' E 135°17'0 0.0
2018-Jun-18 08:28N 34°39' E 135°17'0 0.0
2018-Jun-18 07:45N 34°39' E 135°17'0 0.0
2018-Jun-18 07:27N 34°39' E 135°17'0 0.0
2018-Jun-18 06:04N 34°39' E 135°17'0 0.0
2018-Jun-18 05:51N 34°39' E 135°17'0 0.0
2018-Jun-18 05:15N 34°39' E 135°17'0 0.0
2018-Jun-18 04:57N 34°39' E 135°17'0 0.0
2018-Jun-18 04:16N 34°39' E 135°17'0 0.0
2018-Jun-18 03:57N 34°39' E 135°17'0 0.0
2018-Jun-18 03:21N 34°39' E 135°17'0 0.0
2018-Jun-18 02:52N 34°39' E 135°17'0 0.0
2018-Jun-18 02:27N 34°39' E 135°17'0 0.0
2018-Jun-18 01:51N 34°39' E 135°17'0 0.0
2018-Jun-18 01:28N 34°39' E 135°17'0 0.0
2018-Jun-18 00:51N 34°39' E 135°17'0 0.0
2018-Jun-18 00:21N 34°39' E 135°17'0 0.0
2018-Jun-17 23:58N 34°39' E 135°17'0 0.0
2018-Jun-17 23:22N 34°39' E 135°17'0 0.0
2018-Jun-17 22:58N 34°39' E 135°17'0 0.0
2018-Jun-17 22:04N 34°39' E 135°17'0 0.0
2018-Jun-17 21:57N 34°39' E 135°17'0 0.0
2018-Jun-17 21:28N 34°39' E 135°17'0 0.0
2018-Jun-17 20:57N 34°39' E 135°17'0 0.0
2018-Jun-17 20:27N 34°39' E 135°17'0 0.0
2018-Jun-17 19:52N 34°39' E 135°17'0 0.0
2018-Jun-17 19:21N 34°39' E 135°17'0 0.0
2018-Jun-17 18:57N 34°39' E 135°17'0 0.0
2018-Jun-17 18:27N 34°39' E 135°17'0 0.0
2018-Jun-17 17:52N 34°39' E 135°17'0 0.0
2018-Jun-17 17:27N 34°39' E 135°17'0 0.0
2018-Jun-17 16:57N 34°39' E 135°17'2 3.4
2018-Jun-17 16:29N 34°38' E 135°16'4 9.3
2018-Jun-17 16:00N 34°37' E 135°11'5 9.9
2018-Jun-17 15:28N 34°35' E 135°05'  
2018-Jun-13 01:45N 34°36' E 135°03'2 9.7
2018-Jun-13 01:30N 34°36' E 135°06'611.4
2018-Jun-13 00:59N 34°37' E 135°13'4 2.3
2018-Jun-12 23:18N 34°39' E 135°17'0 0.3
2018-Jun-12 22:48N 34°39' E 135°17'0 0.0
2018-Jun-12 22:30N 34°39' E 135°17'0 0.0
2018-Jun-12 21:48N 34°40' E 135°17'0 0.0
2018-Jun-12 21:18N 34°40' E 135°17'0 0.0
2018-Jun-12 20:54N 34°40' E 135°17'0 0.0
2018-Jun-12 20:30N 34°40' E 135°17'0 0.0
2018-Jun-12 20:00N 34°40' E 135°17'0 0.0
2018-Jun-12 19:30N 34°40' E 135°17'0 0.0
2018-Jun-12 19:00N 34°40' E 135°17'0 0.0
2018-Jun-12 18:30N 34°40' E 135°17'0 0.1
2018-Jun-12 17:54N 34°39' E 135°17'0 0.1
2018-Jun-12 17:24N 34°39' E 135°17'0 0.1
2018-Jun-12 17:00N 34°40' E 135°17'0 0.0
2018-Jun-12 16:30N 34°39' E 135°17'0 0.0
2018-Jun-12 16:00N 34°40' E 135°17'0 0.0
2018-Jun-12 15:30N 34°40' E 135°17'0 0.0
2018-Jun-12 14:54N 34°39' E 135°17'0 0.0
2018-Jun-12 14:30N 34°39' E 135°17'0 0.0
2018-Jun-12 13:54N 34°39' E 135°17'0 0.0
2018-Jun-12 13:30N 34°39' E 135°17'0 0.0
2018-Jun-12 13:00N 34°39' E 135°17'0 0.0
2018-Jun-12 12:30N 34°39' E 135°17'0 0.0
2018-Jun-12 12:00N 34°39' E 135°17'0 0.0
2018-Jun-12 11:30N 34°39' E 135°17'0 0.0
2018-Jun-12 11:00N 34°39' E 135°17'0 0.0
2018-Jun-12 10:30N 34°39' E 135°17'0 0.0
2018-Jun-12 10:00N 34°39' E 135°17'3 5.2
2018-Jun-12 09:29N 34°38' E 135°15'510.6
2018-Jun-12 09:00N 34°36' E 135°09'5 9.6
2018-Jun-12 08:30N 34°36' E 135°03'  
Track history (hours):
 
Tides and Currents Weather Stations Pressure Air Temp Water Temp Dewpoint Dewpoint Depression Visibility Wind Speed Wind Dir Waves Ship Positions

Eikyumaru No.8

Last reported at 2018-Jun-22 02:26 UTC. Time now 2018-Jun-25 00:19 UTC.
Position N 34°38' E 134°57'.

Length 54 m.

Type: Cargo ship. MMSI: 431500105.

Date/timePositionNaut miles runAvg speedWind from/ knotsBaromVisibWave heightAir tempDewpointWater temp
2018-Jun-22 02:26N 34°38' E 134°57'5 8.8
2018-Jun-22 01:50N 34°36' E 135°03'310.3
2018-Jun-22 01:30N 34°36' E 135°07'611.5
2018-Jun-22 01:00N 34°38' E 135°14'3 5.3
2018-Jun-22 00:27N 34°39' E 135°17'0 0.0
2018-Jun-21 23:57N 34°39' E 135°17'0 0.0
2018-Jun-21 23:27N 34°39' E 135°17'0 0.4
2018-Jun-21 22:55N 34°39' E 135°17'0 0.0
2018-Jun-21 21:43N 34°39' E 135°17'0 0.1
2018-Jun-21 21:19N 34°39' E 135°17'0 0.0
2018-Jun-21 20:55N 34°39' E 135°17'0 0.0
2018-Jun-21 20:19N 34°39' E 135°17'0 0.0
2018-Jun-21 19:55N 34°39' E 135°17'0 0.0
2018-Jun-21 19:25N 34°39' E 135°17'0 0.0
2018-Jun-21 18:55N 34°39' E 135°17'0 0.0
2018-Jun-21 18:25N 34°39' E 135°17'0 0.0
2018-Jun-21 17:55N 34°39' E 135°17'0 0.0
2018-Jun-21 17:25N 34°39' E 135°17'0 0.0
2018-Jun-21 16:55N 34°39' E 135°17'0 0.0
2018-Jun-21 16:25N 34°39' E 135°17'0 0.0
2018-Jun-21 15:49N 34°39' E 135°17'0 0.0
2018-Jun-21 15:25N 34°39' E 135°17'0 0.0
2018-Jun-21 14:55N 34°39' E 135°17'0 0.0
2018-Jun-21 14:25N 34°39' E 135°17'0 0.0
2018-Jun-21 13:49N 34°39' E 135°17'0 0.0
2018-Jun-21 13:25N 34°39' E 135°17'0 0.0
2018-Jun-21 12:55N 34°39' E 135°17'0 0.0
2018-Jun-21 12:25N 34°39' E 135°17'0 0.0
2018-Jun-21 11:55N 34°39' E 135°17'0 0.0
2018-Jun-21 11:25N 34°39' E 135°17'0 0.0
2018-Jun-21 10:55N 34°39' E 135°17'0 0.0
2018-Jun-21 10:25N 34°39' E 135°17'0 0.0
2018-Jun-21 09:55N 34°39' E 135°17'0 0.0
2018-Jun-21 09:30N 34°39' E 135°17'5 8.6
2018-Jun-21 08:57N 34°37' E 135°12'510.6
2018-Jun-21 08:30N 34°35' E 135°07'3 0.4
2018-Jun-21 01:36N 34°36' E 135°04'1 9.3
2018-Jun-21 01:29N 34°36' E 135°05'611.0
2018-Jun-21 00:57N 34°37' E 135°12'5 8.8
2018-Jun-21 00:25N 34°39' E 135°17'0 0.0
2018-Jun-20 23:43N 34°39' E 135°17'0 0.0
2018-Jun-20 23:22N 34°39' E 135°17'0 0.5
2018-Jun-20 22:58N 34°40' E 135°17'0 0.0
2018-Jun-20 22:28N 34°40' E 135°17'0 0.0
2018-Jun-20 21:58N 34°40' E 135°17'0 0.0
2018-Jun-20 21:28N 34°40' E 135°17'0 0.0
2018-Jun-20 20:46N 34°40' E 135°17'0 0.0
2018-Jun-20 20:28N 34°40' E 135°17'0 0.0
2018-Jun-20 19:52N 34°39' E 135°17'0 0.0
2018-Jun-20 19:28N 34°40' E 135°17'0 0.0
2018-Jun-20 18:46N 34°40' E 135°17'0 0.0
2018-Jun-20 18:28N 34°40' E 135°17'0 0.0
2018-Jun-20 17:58N 34°40' E 135°17'0 0.0
2018-Jun-20 17:28N 34°40' E 135°17'0 0.0
2018-Jun-20 16:58N 34°40' E 135°17'0 0.0
2018-Jun-20 16:28N 34°40' E 135°17'0 0.0
2018-Jun-20 15:58N 34°40' E 135°17'0 0.0
2018-Jun-20 15:28N 34°40' E 135°17'0 0.0
2018-Jun-20 14:58N 34°40' E 135°17'0 0.1
2018-Jun-20 14:28N 34°40' E 135°17'0 0.0
2018-Jun-20 13:58N 34°40' E 135°17'0 0.1
2018-Jun-20 13:28N 34°40' E 135°17'0 0.0
2018-Jun-20 12:58N 34°40' E 135°17'0 0.0
2018-Jun-20 12:28N 34°40' E 135°17'0 0.0
2018-Jun-20 11:52N 34°40' E 135°17'0 0.0
2018-Jun-20 11:22N 34°40' E 135°17'0 0.0
2018-Jun-20 10:40N 34°40' E 135°17'0 0.0
2018-Jun-20 10:28N 34°40' E 135°17'0 0.0
2018-Jun-20 09:58N 34°40' E 135°17'0 0.0
2018-Jun-20 09:28N 34°40' E 135°17'2 5.2
2018-Jun-20 09:00N 34°37' E 135°16'510.6
2018-Jun-20 08:29N 34°36' E 135°09'10 1.7
2018-Jun-20 02:17N 34°38' E 134°57'411.1
2018-Jun-20 01:58N 34°37' E 135°01'510.0
2018-Jun-20 01:30N 34°36' E 135°07'611.2
2018-Jun-20 01:00N 34°37' E 135°13'3 6.7
2018-Jun-20 00:30N 34°39' E 135°17'0 0.0
2018-Jun-20 00:00N 34°39' E 135°17'0 0.0
2018-Jun-19 23:30N 34°39' E 135°17'0 0.3
2018-Jun-19 22:58N 34°39' E 135°17'0 0.0
2018-Jun-19 22:28N 34°39' E 135°17'0 0.0
2018-Jun-19 21:40N 34°39' E 135°17'0 0.0
2018-Jun-19 21:16N 34°39' E 135°17'0 0.0
2018-Jun-19 20:58N 34°39' E 135°17'0 0.0
2018-Jun-19 20:28N 34°39' E 135°17'0 0.0
2018-Jun-19 19:58N 34°39' E 135°17'0 0.0
2018-Jun-19 19:16N 34°39' E 135°17'0 0.0
2018-Jun-19 18:58N 34°39' E 135°17'0 0.0
2018-Jun-19 18:16N 34°39' E 135°17'0 0.0
2018-Jun-19 17:46N 34°39' E 135°17'0 0.0
2018-Jun-19 17:28N 34°39' E 135°17'0 0.0
2018-Jun-19 16:58N 34°39' E 135°17'0 0.0
2018-Jun-19 16:28N 34°39' E 135°17'0 0.0
2018-Jun-19 15:58N 34°39' E 135°17'0 0.0
2018-Jun-19 15:22N 34°39' E 135°17'0 0.0
2018-Jun-19 14:58N 34°39' E 135°17'0 0.0
2018-Jun-19 14:28N 34°39' E 135°17'0 0.0
2018-Jun-19 13:58N 34°40' E 135°17'0 0.1
2018-Jun-19 13:28N 34°40' E 135°17'0 0.0
2018-Jun-19 12:58N 34°40' E 135°17'0 0.1
2018-Jun-19 12:28N 34°40' E 135°17'0 0.1
2018-Jun-19 11:58N 34°40' E 135°17'0 0.0
2018-Jun-19 11:28N 34°40' E 135°17'0 0.0
2018-Jun-19 10:46N 34°40' E 135°17'0 0.0
2018-Jun-19 10:28N 34°40' E 135°17'0 0.0
2018-Jun-19 09:58N 34°40' E 135°17'1 2.0
2018-Jun-19 09:30N 34°39' E 135°17'510.6
2018-Jun-19 09:00N 34°36' E 135°11'611.3
2018-Jun-19 08:30N 34°35' E 135°05'3 0.5
2018-Jun-19 02:03N 34°37' E 135°02'311.7
2018-Jun-19 01:50N 34°36' E 135°04'411.9
2018-Jun-19 01:30N 34°37' E 135°09'611.5
2018-Jun-19 00:59N 34°38' E 135°16'2 1.0
2018-Jun-18 23:25N 34°39' E 135°17'0 0.5
2018-Jun-18 22:57N 34°40' E 135°17'0 0.0
2018-Jun-18 22:27N 34°40' E 135°17'0 0.0
2018-Jun-18 21:52N 34°40' E 135°17'0 0.0
2018-Jun-18 21:27N 34°40' E 135°17'0 0.0
2018-Jun-18 20:58N 34°40' E 135°17'0 0.0
2018-Jun-18 20:21N 34°40' E 135°17'0 0.0
2018-Jun-18 19:57N 34°40' E 135°17'0 0.0
2018-Jun-18 19:27N 34°40' E 135°17'0 0.1
2018-Jun-18 18:58N 34°40' E 135°17'0 0.1
2018-Jun-18 18:27N 34°40' E 135°17'0 0.1
2018-Jun-18 17:58N 34°40' E 135°17'0 0.0
2018-Jun-18 17:28N 34°40' E 135°17'0 0.0
2018-Jun-18 16:57N 34°40' E 135°17'0 0.0
2018-Jun-18 16:22N 34°40' E 135°17'0 0.0
2018-Jun-18 15:57N 34°40' E 135°17'0 0.1
2018-Jun-18 15:15N 34°39' E 135°17'0 0.0
2018-Jun-18 14:51N 34°40' E 135°17'0 0.0
2018-Jun-18 14:27N 34°39' E 135°17'0 0.0
2018-Jun-18 13:58N 34°39' E 135°17'0 0.0
2018-Jun-18 13:27N 34°39' E 135°17'0 0.0
2018-Jun-18 12:57N 34°39' E 135°17'0 0.0
2018-Jun-18 12:27N 34°39' E 135°17'0 0.0
2018-Jun-18 11:09N 34°39' E 135°17'0 0.0
2018-Jun-18 10:58N 34°39' E 135°17'0 0.0
2018-Jun-18 10:27N 34°39' E 135°17'0 0.0
2018-Jun-18 09:58N 34°39' E 135°17'0 0.0
2018-Jun-18 09:21N 34°39' E 135°17'0 0.0
2018-Jun-18 08:57N 34°39' E 135°17'0 0.0
2018-Jun-18 08:28N 34°39' E 135°17'0 0.0
2018-Jun-18 07:45N 34°39' E 135°17'0 0.0
2018-Jun-18 07:27N 34°39' E 135°17'0 0.0
2018-Jun-18 06:04N 34°39' E 135°17'0 0.0
2018-Jun-18 05:51N 34°39' E 135°17'0 0.0
2018-Jun-18 05:15N 34°39' E 135°17'0 0.0
2018-Jun-18 04:57N 34°39' E 135°17'0 0.0
2018-Jun-18 04:16N 34°39' E 135°17'0 0.0
2018-Jun-18 03:57N 34°39' E 135°17'0 0.0
2018-Jun-18 03:21N 34°39' E 135°17'0 0.0
2018-Jun-18 02:52N 34°39' E 135°17'0 0.0
2018-Jun-18 02:27N 34°39' E 135°17'0 0.0
2018-Jun-18 01:51N 34°39' E 135°17'0 0.0
2018-Jun-18 01:28N 34°39' E 135°17'0 0.0
2018-Jun-18 00:51N 34°39' E 135°17'0 0.0
2018-Jun-18 00:21N 34°39' E 135°17'0 0.0
2018-Jun-17 23:58N 34°39' E 135°17'0 0.0
2018-Jun-17 23:22N 34°39' E 135°17'0 0.0
2018-Jun-17 22:58N 34°39' E 135°17'0 0.0
2018-Jun-17 22:04N 34°39' E 135°17'0 0.0
2018-Jun-17 21:57N 34°39' E 135°17'0 0.0
2018-Jun-17 21:28N 34°39' E 135°17'0 0.0
2018-Jun-17 20:57N 34°39' E 135°17'0 0.0
2018-Jun-17 20:27N 34°39' E 135°17'0 0.0
2018-Jun-17 19:52N 34°39' E 135°17'0 0.0
2018-Jun-17 19:21N 34°39' E 135°17'0 0.0
2018-Jun-17 18:57N 34°39' E 135°17'0 0.0
2018-Jun-17 18:27N 34°39' E 135°17'0 0.0
2018-Jun-17 17:52N 34°39' E 135°17'0 0.0
2018-Jun-17 17:27N 34°39' E 135°17'0 0.0
2018-Jun-17 16:57N 34°39' E 135°17'2 3.4
2018-Jun-17 16:29N 34°38' E 135°16'4 9.3
2018-Jun-17 16:00N 34°37' E 135°11'5 9.9
2018-Jun-17 15:28N 34°35' E 135°05'  
2018-Jun-13 01:45N 34°36' E 135°03'2 9.7
2018-Jun-13 01:30N 34°36' E 135°06'611.4
2018-Jun-13 00:59N 34°37' E 135°13'4 2.3
2018-Jun-12 23:18N 34°39' E 135°17'0 0.3
2018-Jun-12 22:48N 34°39' E 135°17'0 0.0
2018-Jun-12 22:30N 34°39' E 135°17'0 0.0
2018-Jun-12 21:48N 34°40' E 135°17'0 0.0
2018-Jun-12 21:18N 34°40' E 135°17'0 0.0
2018-Jun-12 20:54N 34°40' E 135°17'0 0.0
2018-Jun-12 20:30N 34°40' E 135°17'0 0.0
2018-Jun-12 20:00N 34°40' E 135°17'0 0.0
2018-Jun-12 19:30N 34°40' E 135°17'0 0.0
2018-Jun-12 19:00N 34°40' E 135°17'0 0.0
2018-Jun-12 18:30N 34°40' E 135°17'0 0.1
2018-Jun-12 17:54N 34°39' E 135°17'0 0.1
2018-Jun-12 17:24N 34°39' E 135°17'0 0.1
2018-Jun-12 17:00N 34°40' E 135°17'0 0.0
2018-Jun-12 16:30N 34°39' E 135°17'0 0.0
2018-Jun-12 16:00N 34°40' E 135°17'0 0.0
2018-Jun-12 15:30N 34°40' E 135°17'0 0.0
2018-Jun-12 14:54N 34°39' E 135°17'0 0.0
2018-Jun-12 14:30N 34°39' E 135°17'0 0.0
2018-Jun-12 13:54N 34°39' E 135°17'0 0.0
2018-Jun-12 13:30N 34°39' E 135°17'0 0.0
2018-Jun-12 13:00N 34°39' E 135°17'0 0.0
2018-Jun-12 12:30N 34°39' E 135°17'0 0.0
2018-Jun-12 12:00N 34°39' E 135°17'0 0.0
2018-Jun-12 11:30N 34°39' E 135°17'0 0.0
2018-Jun-12 11:00N 34°39' E 135°17'0 0.0
2018-Jun-12 10:30N 34°39' E 135°17'0 0.0
2018-Jun-12 10:00N 34°39' E 135°17'3 5.2
2018-Jun-12 09:29N 34°38' E 135°15'510.6
2018-Jun-12 09:00N 34°36' E 135°09'5 9.6
2018-Jun-12 08:30N 34°36' E 135°03'  

Dump ship's entire track history